National Weather Service Raw Text Product

Displaying AFOS PIL: TAFFOD Received: 2018-10-12 05:20 UTC


742 
FTUS43 KDMX 120520
TAFFOD
TAF
KFOD 120520Z 1206/1306 VRB02KT P6SM BKN120
     FM122200 26007KT P6SM BKN040
     FM130200 23006KT P6SM SCT060
     FM130500 21006KT P6SM BKN060=